createdAt,value
2018-11-20T00:03:02.323Z,4.30
2018-11-20T00:06:09.575Z,4.10
2018-11-20T00:09:10.036Z,4.30
2018-11-20T00:12:17.300Z,4.33
2018-11-20T00:15:25.319Z,4.43
2018-11-20T00:18:32.537Z,4.03
2018-11-20T00:21:39.802Z,4.23
2018-11-20T00:24:47.037Z,4.00
2018-11-20T00:27:54.287Z,4.20
2018-11-20T00:31:01.538Z,3.97
2018-11-20T00:33:57.090Z,4.10
2018-11-20T00:37:04.314Z,4.27
2018-11-20T00:40:11.584Z,4.43
2018-11-20T00:43:07.482Z,3.53
2018-11-20T00:46:14.721Z,4.10
2018-11-20T00:52:48.344Z,3.50
2018-11-20T00:56:17.596Z,3.83
2018-11-20T00:59:24.901Z,4.20
2018-11-20T01:02:32.115Z,4.20
2018-11-20T01:05:29.674Z,4.10
2018-11-20T01:08:26.935Z,4.13
2018-11-20T01:11:34.174Z,4.40
2018-11-20T01:14:41.414Z,4.47
2018-11-20T01:17:48.670Z,4.03
2018-11-20T01:20:45.393Z,4.63
2018-11-20T01:23:52.647Z,4.17
2018-11-20T01:26:57.742Z,4.77
2018-11-20T01:30:05.000Z,4.03
2018-11-20T01:33:12.236Z,4.90
2018-11-20T01:36:19.479Z,4.90
2018-11-20T01:39:27.550Z,4.60
2018-11-20T01:42:34.801Z,4.20
2018-11-20T01:45:42.040Z,4.60
2018-11-20T01:48:49.295Z,4.80
2018-11-20T01:51:55.047Z,4.73
2018-11-20T01:55:02.293Z,4.33
2018-11-20T01:58:09.982Z,4.30
2018-11-20T02:01:17.236Z,4.90
2018-11-20T02:04:15.371Z,4.87
2018-11-20T02:07:22.648Z,5.03
2018-11-20T02:10:30.160Z,4.67
2018-11-20T02:13:56.450Z,4.90
2018-11-20T02:17:14.079Z,4.73
2018-11-20T02:20:21.336Z,5.33
2018-11-20T02:23:29.902Z,5.33
2018-11-20T02:26:35.782Z,5.37
2018-11-20T02:29:43.015Z,5.40
2018-11-20T02:32:50.276Z,5.40
2018-11-20T02:35:57.517Z,5.70
2018-11-20T02:38:57.115Z,5.90
2018-11-20T02:42:04.362Z,5.20
2018-11-20T02:45:11.638Z,6.20
2018-11-20T02:48:18.856Z,6.47
2018-11-20T02:51:26.175Z,5.67
2018-11-20T02:54:33.380Z,6.13
2018-11-20T02:57:41.587Z,5.57
2018-11-20T03:01:06.898Z,6.03
2018-11-20T03:04:14.152Z,6.07
2018-11-20T03:07:21.404Z,5.93
2018-11-20T03:10:28.652Z,6.50
2018-11-20T03:13:35.876Z,6.40
2018-11-20T03:16:43.129Z,6.90
2018-11-20T03:19:39.227Z,6.53
2018-11-20T03:22:46.466Z,6.90
2018-11-20T03:25:55.765Z,6.43
2018-11-20T03:29:22.093Z,6.10
2018-11-20T03:32:18.670Z,6.77
2018-11-20T03:35:25.919Z,7.33
2018-11-20T03:38:33.160Z,7.03
2018-11-20T03:41:40.424Z,6.63
2018-11-20T03:44:40.291Z,7.47
2018-11-20T03:47:47.596Z,6.50
2018-11-20T03:50:54.794Z,6.83
2018-11-20T03:53:51.629Z,6.90
2018-11-20T03:56:58.883Z,6.23
2018-11-20T04:00:06.156Z,7.20
2018-11-20T04:03:13.391Z,6.90
2018-11-20T04:06:20.664Z,6.53
2018-11-20T04:09:12.385Z,6.07
2018-11-20T04:12:19.650Z,6.87
2018-11-20T04:15:26.902Z,5.83
2018-11-20T04:18:34.160Z,6.30
2018-11-20T04:21:41.402Z,6.53
2018-11-20T04:24:48.646Z,6.63
2018-11-20T04:27:55.857Z,6.70
2018-11-20T04:31:22.119Z,6.80
2018-11-20T04:34:19.348Z,6.67
2018-11-20T04:37:26.622Z,7.13
2018-11-20T04:40:33.857Z,7.03
2018-11-20T04:43:41.125Z,6.83
2018-11-20T04:46:48.389Z,6.53
2018-11-20T04:49:55.719Z,7.27
2018-11-20T04:53:02.875Z,7.70
2018-11-20T04:56:10.313Z,7.40
2018-11-20T04:59:17.577Z,7.03
2018-11-20T05:02:24.866Z,7.40
2018-11-20T05:05:32.088Z,7.27
2018-11-20T05:08:39.372Z,7.33
2018-11-20T05:11:46.583Z,7.63
2018-11-20T05:14:54.133Z,8.20
2018-11-20T05:18:01.372Z,7.83
2018-11-20T05:21:08.658Z,7.97
2018-11-20T05:24:15.895Z,8.17
2018-11-20T05:27:23.162Z,7.90
2018-11-20T05:30:30.397Z,7.40
2018-11-20T05:33:37.698Z,8.33
2018-11-20T05:36:44.917Z,7.60
2018-11-20T05:39:52.153Z,8.40
2018-11-20T05:42:59.405Z,7.60
2018-11-20T05:46:06.655Z,8.30
2018-11-20T05:49:13.921Z,7.97
2018-11-20T05:52:21.171Z,8.13
2018-11-20T05:55:28.399Z,8.03
2018-11-20T05:58:35.660Z,7.73
2018-11-20T06:01:42.914Z,8.10
2018-11-20T06:04:50.180Z,7.03
2018-11-20T06:07:57.410Z,7.07
2018-11-20T06:11:04.671Z,6.50
2018-11-20T06:14:14.361Z,7.80
2018-11-20T06:17:21.606Z,7.23
2018-11-20T06:20:28.838Z,7.57
2018-11-20T06:23:36.111Z,7.77
2018-11-20T06:26:43.356Z,7.60
2018-11-20T06:29:50.617Z,7.50
2018-11-20T06:32:46.736Z,7.47
2018-11-20T06:35:53.996Z,7.07
2018-11-20T06:39:01.215Z,7.40
2018-11-20T06:42:08.482Z,7.63
2018-11-20T06:45:15.729Z,7.53
2018-11-20T06:48:22.997Z,7.40
2018-11-20T06:51:30.214Z,7.87
2018-11-20T06:54:37.473Z,7.70
2018-11-20T06:57:44.722Z,7.50
2018-11-20T07:00:51.974Z,7.07
2018-11-20T07:03:59.215Z,7.90
2018-11-20T07:07:07.241Z,7.57
2018-11-20T07:10:14.430Z,8.10
2018-11-20T07:13:40.727Z,9.00
2018-11-20T07:17:06.969Z,8.37
2018-11-20T07:20:14.248Z,9.07
2018-11-20T07:23:21.495Z,7.87
2018-11-20T07:26:28.776Z,8.83
2018-11-20T07:29:36.067Z,7.90
2018-11-20T07:32:43.234Z,8.33
2018-11-20T07:35:50.469Z,8.10
2018-11-20T07:38:57.724Z,8.23
2018-11-20T07:42:04.959Z,8.60
2018-11-20T07:45:12.237Z,8.60
2018-11-20T07:48:19.452Z,8.10
2018-11-20T07:51:26.746Z,8.70
2018-11-20T07:54:33.952Z,8.83
2018-11-20T07:57:41.208Z,8.67
2018-11-20T08:00:48.456Z,9.30
2018-11-20T08:03:55.723Z,9.07
2018-11-20T08:07:02.981Z,9.03
2018-11-20T08:10:10.579Z,9.33
2018-11-20T08:13:10.063Z,9.90
2018-11-20T08:16:17.324Z,8.90
2018-11-20T08:19:15.128Z,10.03
2018-11-20T08:22:22.387Z,9.73
2018-11-20T08:25:29.739Z,10.60
2018-11-20T08:28:26.921Z,10.87
2018-11-20T08:31:34.193Z,10.77
2018-11-20T08:34:41.474Z,11.10
2018-11-20T08:37:48.726Z,11.47
2018-11-20T08:40:55.999Z,11.03
2018-11-20T08:44:03.240Z,10.63
2018-11-20T08:47:10.517Z,10.53
2018-11-20T08:50:17.773Z,10.13
2018-11-20T08:53:25.054Z,9.53
2018-11-20T08:56:32.265Z,10.00
2018-11-20T08:59:39.524Z,9.87
2018-11-20T09:02:38.610Z,9.33
2018-11-20T09:05:45.787Z,9.33
2018-11-20T09:08:53.029Z,9.63
2018-11-20T09:12:00.285Z,10.03
2018-11-20T09:15:07.507Z,10.23
2018-11-20T09:18:14.766Z,10.00
2018-11-20T09:21:12.828Z,10.03
2018-11-20T09:24:20.008Z,9.77
2018-11-20T09:27:27.269Z,9.73
2018-11-20T09:30:34.536Z,8.93
2018-11-20T09:33:41.950Z,9.37
2018-11-20T09:36:49.196Z,9.47
2018-11-20T09:40:00.021Z,9.20
2018-11-20T09:43:06.179Z,9.30
2018-11-20T09:46:16.157Z,9.77
2018-11-20T09:49:23.417Z,9.50
2018-11-20T09:55:46.767Z,9.20
2018-11-20T09:58:54.005Z,9.37
2018-11-20T10:02:01.268Z,9.10
2018-11-20T10:05:08.516Z,9.10
2018-11-20T10:08:15.759Z,9.37
2018-11-20T10:11:23.000Z,8.87
2018-11-20T10:14:30.273Z,8.30
2018-11-20T10:17:37.479Z,8.20
2018-11-20T10:20:44.740Z,9.30
2018-11-20T10:23:52.012Z,8.93
2018-11-20T10:26:52.090Z,7.60
2018-11-20T10:29:57.665Z,8.43
2018-11-20T10:32:52.358Z,8.80
2018-11-20T10:35:51.195Z,8.33
2018-11-20T10:38:53.913Z,8.40
2018-11-20T10:41:53.919Z,7.80
2018-11-20T10:44:53.694Z,7.70
2018-11-20T10:47:53.435Z,8.77
2018-11-20T10:50:52.937Z,7.80
2018-11-20T10:53:52.757Z,8.20
2018-11-20T10:56:52.855Z,8.80
2018-11-20T10:59:52.393Z,8.07
2018-11-20T11:02:52.185Z,8.63
2018-11-20T11:05:52.090Z,8.23
2018-11-20T11:08:52.475Z,8.23
2018-11-20T11:11:52.098Z,8.53
2018-11-20T11:14:57.991Z,8.57
2018-11-20T11:17:57.976Z,8.33
2018-11-20T11:20:57.862Z,8.40
2018-11-20T11:23:49.288Z,8.67
2018-11-20T11:26:48.663Z,8.90
2018-11-20T11:29:48.093Z,8.90
2018-11-20T11:32:48.199Z,8.83
2018-11-20T11:35:47.717Z,8.10
2018-11-20T11:38:44.502Z,8.60
2018-11-20T11:41:43.972Z,9.30
2018-11-20T11:44:46.558Z,8.87
2018-11-20T11:47:41.813Z,8.80
2018-11-20T11:50:48.010Z,8.30
2018-11-20T11:53:35.415Z,8.87
2018-11-20T11:56:27.461Z,9.00
2018-11-20T11:59:27.109Z,8.97
2018-11-20T12:05:26.753Z,9.10
2018-11-20T12:08:32.341Z,8.40
2018-11-20T12:11:32.009Z,8.80
2018-11-20T12:14:35.331Z,9.00
2018-11-20T12:17:35.139Z,7.93
2018-11-20T12:20:28.446Z,8.87
2018-11-20T12:23:35.733Z,9.00
2018-11-20T12:26:42.928Z,8.80
2018-11-20T12:29:50.169Z,7.70
2018-11-20T12:32:57.453Z,8.27
2018-11-20T12:35:58.177Z,8.57
2018-11-20T12:39:05.424Z,8.63
2018-11-20T12:41:58.977Z,8.40
2018-11-20T12:45:06.258Z,8.03
2018-11-20T12:48:13.480Z,8.80
2018-11-20T12:51:20.812Z,8.60
2018-11-20T12:54:20.381Z,8.13
2018-11-20T12:57:27.645Z,7.97
2018-11-20T13:00:35.201Z,8.37
2018-11-20T13:03:42.137Z,7.70
2018-11-20T13:06:49.361Z,8.13
2018-11-20T13:09:56.645Z,7.37
2018-11-20T13:13:03.861Z,7.83
2018-11-20T13:16:11.134Z,6.97
2018-11-20T13:19:11.753Z,7.30
2018-11-20T13:22:19.014Z,6.63
2018-11-20T13:25:26.301Z,6.67
2018-11-20T13:28:33.557Z,6.20
2018-11-20T13:31:40.798Z,6.70
2018-11-20T13:34:49.870Z,6.73
2018-11-20T13:37:55.274Z,6.53
2018-11-20T13:44:22.573Z,6.03
2018-11-20T13:47:29.790Z,6.13
2018-11-20T13:50:37.073Z,7.17
2018-11-20T13:53:44.339Z,6.63
2018-11-20T13:56:51.614Z,6.23
2018-11-20T14:00:01.555Z,6.30
2018-11-20T14:03:05.331Z,7.10
2018-11-20T14:06:12.542Z,6.33
2018-11-20T14:09:14.182Z,7.83
2018-11-20T14:12:21.430Z,8.50
2018-11-20T14:15:28.698Z,8.67
2018-11-20T14:18:35.964Z,9.17
2018-11-20T14:21:43.207Z,9.50
2018-11-20T14:24:50.461Z,9.90
2018-11-20T14:27:58.486Z,10.33
2018-11-20T14:31:04.947Z,9.67
2018-11-20T14:34:12.222Z,9.87
2018-11-20T14:37:19.464Z,10.27
2018-11-20T14:40:26.720Z,9.17
2018-11-20T14:43:33.938Z,9.50
2018-11-20T14:46:41.203Z,10.97
2018-11-20T14:50:07.465Z,11.00
2018-11-20T14:53:14.710Z,11.43
2018-11-20T14:56:21.964Z,11.13
2018-11-20T14:59:29.219Z,11.27
2018-11-20T15:02:36.486Z,11.97
2018-11-20T15:05:43.769Z,11.63
2018-11-20T15:08:51.008Z,11.10
2018-11-20T15:11:48.433Z,11.23
2018-11-20T15:14:55.786Z,11.57
2018-11-20T15:18:03.066Z,12.73
2018-11-20T15:21:02.842Z,12.43
2018-11-20T15:24:10.096Z,11.57
2018-11-20T15:27:17.332Z,10.73
2018-11-20T15:30:25.709Z,12.30
2018-11-20T15:33:32.951Z,12.23
2018-11-20T15:36:40.243Z,11.53
2018-11-20T15:42:57.035Z,12.37
2018-11-20T15:46:06.241Z,12.23
2018-11-20T15:49:13.520Z,12.20
2018-11-20T15:52:18.546Z,11.10
2018-11-20T15:55:26.372Z,11.57
2018-11-20T15:58:33.642Z,11.33
2018-11-20T16:01:40.910Z,10.60
2018-11-20T16:04:48.190Z,10.63
2018-11-20T16:07:55.482Z,10.27
2018-11-20T16:11:02.740Z,10.67
2018-11-20T16:14:10.016Z,10.83
2018-11-20T16:17:17.745Z,10.20
2018-11-20T16:20:25.196Z,10.53
2018-11-20T16:23:21.657Z,10.07
2018-11-20T16:26:28.938Z,10.00
2018-11-20T16:29:36.204Z,10.23
2018-11-20T16:32:43.469Z,10.20
2018-11-20T16:35:41.028Z,9.40
2018-11-20T16:38:48.294Z,10.30
2018-11-20T16:41:55.551Z,10.17
2018-11-20T16:45:02.861Z,9.40
2018-11-20T16:48:10.113Z,10.03
2018-11-20T16:51:07.553Z,10.30
2018-11-20T16:54:04.367Z,9.83
2018-11-20T16:57:11.662Z,9.50
2018-11-20T17:00:18.920Z,10.10
2018-11-20T17:03:25.976Z,10.17
2018-11-20T17:06:26.163Z,10.60
2018-11-20T17:09:26.112Z,9.97
2018-11-20T17:12:31.370Z,10.07
2018-11-20T17:15:30.882Z,10.47
2018-11-20T17:18:30.550Z,10.63
2018-11-20T17:21:27.428Z,10.60
2018-11-20T17:24:27.533Z,10.47
2018-11-20T17:27:27.038Z,11.07
2018-11-20T17:30:34.322Z,11.23
2018-11-20T17:33:41.564Z,10.03
2018-11-20T17:36:48.862Z,10.27
2018-11-20T17:39:56.114Z,9.53
2018-11-20T17:43:03.403Z,10.37
2018-11-20T17:46:10.704Z,10.27
2018-11-20T17:49:17.984Z,10.47
2018-11-20T17:52:25.264Z,10.83
2018-11-20T17:55:32.617Z,10.33
2018-11-20T17:58:39.972Z,11.00
2018-11-20T18:01:47.309Z,11.40
2018-11-20T18:04:54.638Z,11.07
2018-11-20T18:07:56.021Z,11.27
2018-11-20T18:10:42.598Z,12.03
2018-11-20T18:13:30.961Z,11.97
2018-11-20T18:16:17.836Z,11.87
2018-11-20T18:18:59.484Z,11.50
2018-11-20T18:22:06.816Z,12.93
2018-11-20T18:25:14.129Z,12.07
2018-11-20T18:28:11.237Z,12.43
2018-11-20T18:31:18.644Z,13.33
2018-11-20T18:37:39.037Z,13.80
2018-11-20T18:40:46.375Z,12.60
2018-11-20T18:43:53.668Z,13.63
2018-11-20T18:47:00.983Z,13.93
2018-11-20T18:50:09.015Z,13.57
2018-11-20T18:53:05.056Z,14.03
2018-11-20T18:55:53.700Z,13.80
2018-11-20T18:59:03.816Z,13.43
2018-11-20T19:02:11.343Z,13.87
2018-11-20T19:05:19.531Z,13.83
2018-11-20T19:08:26.959Z,14.43
2018-11-20T19:11:34.261Z,13.90
2018-11-20T19:14:41.690Z,13.77
2018-11-20T19:17:50.091Z,14.07
2018-11-20T19:20:57.409Z,13.93
2018-11-20T19:24:06.907Z,13.23
2018-11-20T19:27:14.212Z,14.03
2018-11-20T19:30:21.520Z,14.30
2018-11-20T19:33:29.350Z,14.07
2018-11-20T19:36:36.637Z,14.47
2018-11-20T19:39:45.081Z,15.80
2018-11-20T19:42:52.346Z,17.63
2018-11-20T19:45:52.301Z,15.03
2018-11-20T19:48:30.166Z,15.47
2018-11-20T19:51:18.781Z,15.77
2018-11-20T19:54:09.650Z,15.07
2018-11-20T19:56:56.232Z,14.60
2018-11-20T19:59:43.104Z,13.87
2018-11-20T20:02:36.548Z,14.60
2018-11-20T20:05:24.496Z,14.77
2018-11-20T20:08:21.594Z,13.57
2018-11-20T20:11:18.112Z,14.27
2018-11-20T20:14:13.727Z,14.33
2018-11-20T20:17:19.949Z,14.47
2018-11-20T20:20:08.901Z,14.00
2018-11-20T20:23:12.281Z,15.00
2018-11-20T20:25:49.620Z,13.47
2018-11-20T20:28:56.955Z,14.27
2018-11-20T20:32:04.315Z,14.33
2018-11-20T20:35:11.625Z,14.67
2018-11-20T20:38:18.897Z,14.77
2018-11-20T20:41:26.210Z,15.30
2018-11-20T20:44:33.512Z,14.60
2018-11-20T20:47:40.828Z,14.30
2018-11-20T20:50:49.184Z,14.23
2018-11-20T20:53:35.668Z,15.20
2018-11-20T20:56:27.906Z,14.20
2018-11-20T20:59:56.341Z,15.23
2018-11-20T21:03:03.621Z,14.93
2018-11-20T21:06:11.095Z,15.03
2018-11-20T21:09:19.300Z,15.37
2018-11-20T21:12:26.582Z,14.37
2018-11-20T21:15:33.936Z,14.37
2018-11-20T21:18:41.153Z,14.23
2018-11-20T21:21:48.732Z,14.40
2018-11-20T21:24:55.987Z,13.60
2018-11-20T21:27:55.291Z,14.93
2018-11-20T21:31:02.551Z,14.83
2018-11-20T21:33:49.284Z,14.80
2018-11-20T21:36:28.872Z,14.67
2018-11-20T21:39:15.990Z,15.40
2018-11-20T21:42:02.899Z,14.53
2018-11-20T21:44:51.260Z,14.17
2018-11-20T21:47:42.483Z,14.77
2018-11-20T21:50:30.814Z,14.93
2018-11-20T21:53:33.937Z,14.80
2018-11-20T21:56:18.769Z,14.77
2018-11-20T21:59:00.748Z,15.37
2018-11-20T22:01:57.920Z,15.17
2018-11-20T22:04:44.631Z,14.73
2018-11-20T22:07:31.577Z,15.27
2018-11-20T22:10:38.854Z,14.93
2018-11-20T22:13:46.127Z,16.00
2018-11-20T22:16:53.385Z,15.63
2018-11-20T22:20:00.649Z,16.00
2018-11-20T22:23:07.927Z,16.03
2018-11-20T22:26:15.211Z,14.50
2018-11-20T22:29:13.234Z,14.63
2018-11-20T22:32:20.495Z,16.03
2018-11-20T22:35:27.755Z,15.00
2018-11-20T22:38:35.019Z,15.13
2018-11-20T22:41:42.267Z,14.87
2018-11-20T22:44:49.805Z,15.00
2018-11-20T22:47:57.056Z,15.27
2018-11-20T22:50:53.399Z,15.70
2018-11-20T22:54:00.639Z,15.67
2018-11-20T22:57:07.892Z,15.97
2018-11-20T23:00:15.147Z,15.23
2018-11-20T23:03:22.406Z,15.27
2018-11-20T23:06:28.771Z,14.53
2018-11-20T23:09:17.298Z,15.20
2018-11-20T23:12:05.835Z,15.90
2018-11-20T23:14:54.297Z,16.47
2018-11-20T23:17:42.782Z,15.73
2018-11-20T23:20:31.265Z,16.53
2018-11-20T23:26:13.640Z,15.53
2018-11-20T23:29:02.163Z,16.17
2018-11-20T23:31:50.648Z,16.17
2018-11-20T23:34:39.146Z,15.57
2018-11-20T23:37:27.601Z,16.00
2018-11-20T23:40:16.098Z,15.93
2018-11-20T23:43:04.599Z,15.33
2018-11-20T23:45:53.076Z,15.63
2018-11-20T23:48:41.563Z,15.60
2018-11-20T23:51:30.170Z,15.83
2018-11-20T23:54:18.661Z,14.60
2018-11-20T23:57:07.154Z,15.63
2018-11-20T23:59:57.319Z,15.77
